createdAt,value
2018-05-08T00:00:52.933Z,98.70
2018-05-08T00:03:20.497Z,98.70
2018-05-08T00:05:48.080Z,98.70
2018-05-08T00:08:16.462Z,98.80
2018-05-08T00:10:44.827Z,98.80
2018-05-08T00:13:13.186Z,98.90
2018-05-08T00:15:40.758Z,98.90
2018-05-08T00:18:08.344Z,99.10
2018-05-08T00:20:36.914Z,99.30
2018-05-08T00:23:05.262Z,99.10
2018-05-08T00:25:32.853Z,99.00
2018-05-08T00:28:01.199Z,99.20
2018-05-08T00:30:28.822Z,99.20
2018-05-08T00:32:56.453Z,99.50
2018-05-08T00:35:24.777Z,99.70
2018-05-08T00:37:52.365Z,99.70
2018-05-08T00:40:20.019Z,99.70
2018-05-08T00:42:47.957Z,99.60
2018-05-08T00:45:16.251Z,99.70
2018-05-08T00:47:43.907Z,99.70
2018-05-08T00:50:11.513Z,99.80
2018-05-08T00:52:39.940Z,99.90
2018-05-08T00:55:07.516Z,99.90
2018-05-08T00:57:35.096Z,99.90
2018-05-08T01:00:02.720Z,99.90
2018-05-08T01:02:30.346Z,99.90
2018-05-08T01:04:58.793Z,99.90
2018-05-08T01:07:27.064Z,99.90
2018-05-08T01:09:54.660Z,99.90
2018-05-08T01:12:22.230Z,99.90
2018-05-08T01:14:49.822Z,99.90
2018-05-08T01:17:17.406Z,99.90
2018-05-08T01:19:45.016Z,99.90
2018-05-08T01:22:12.569Z,99.90
2018-05-08T01:24:41.369Z,99.90
2018-05-08T01:27:09.678Z,99.90
2018-05-08T01:29:37.262Z,99.90
2018-05-08T01:32:04.835Z,99.90
2018-05-08T01:34:32.434Z,99.90
2018-05-08T01:37:00.014Z,99.90
2018-05-08T01:39:27.569Z,99.90
2018-05-08T01:41:55.209Z,99.90
2018-05-08T01:44:23.583Z,99.90
2018-05-08T01:46:51.948Z,99.90
2018-05-08T01:49:19.560Z,99.90
2018-05-08T01:51:47.951Z,99.90
2018-05-08T01:54:15.512Z,99.90
2018-05-08T01:56:44.102Z,99.90
2018-05-08T01:59:12.259Z,99.90
2018-05-08T02:01:39.825Z,99.90
2018-05-08T02:04:07.410Z,99.90
2018-05-08T02:06:35.016Z,99.90
2018-05-08T02:09:02.621Z,99.90
2018-05-08T02:11:30.196Z,99.90
2018-05-08T02:13:57.803Z,99.90
2018-05-08T02:16:25.457Z,99.90
2018-05-08T02:18:53.030Z,99.90
2018-05-08T02:21:20.644Z,99.90
2018-05-08T02:23:48.248Z,99.90
2018-05-08T02:26:15.837Z,99.90
2018-05-08T02:28:43.411Z,99.90
2018-05-08T02:31:11.012Z,99.90
2018-05-08T02:33:38.561Z,99.90
2018-05-08T02:36:06.941Z,99.90
2018-05-08T02:38:34.525Z,99.90
2018-05-08T02:41:02.142Z,99.90
2018-05-08T02:43:29.709Z,99.90
2018-05-08T02:45:57.277Z,99.90
2018-05-08T02:48:25.649Z,99.90
2018-05-08T02:50:53.308Z,99.90
2018-05-08T02:53:20.917Z,99.90
2018-05-08T02:55:48.478Z,99.90
2018-05-08T02:58:16.070Z,99.90
2018-05-08T03:00:43.734Z,99.90
2018-05-08T03:03:11.333Z,99.90
2018-05-08T03:05:39.678Z,99.90
2018-05-08T03:08:07.293Z,99.90
2018-05-08T03:10:34.911Z,99.90
2018-05-08T03:13:02.545Z,99.90
2018-05-08T03:15:30.147Z,99.90
2018-05-08T03:17:58.526Z,99.90
2018-05-08T03:20:26.875Z,99.90
2018-05-08T03:22:54.465Z,99.90
2018-05-08T03:25:22.834Z,99.90
2018-05-08T03:27:50.492Z,99.90
2018-05-08T03:30:18.107Z,99.90
2018-05-08T03:32:45.774Z,99.90
2018-05-08T03:35:13.373Z,99.90
2018-05-08T03:37:40.960Z,99.90
2018-05-08T03:40:08.577Z,99.90
2018-05-08T03:42:36.161Z,99.90
2018-05-08T03:45:03.797Z,99.90
2018-05-08T03:47:31.381Z,99.90
2018-05-08T03:49:58.937Z,99.90
2018-05-08T03:52:26.536Z,99.90
2018-05-08T03:54:54.089Z,99.90
2018-05-08T03:57:21.746Z,99.90
2018-05-08T03:59:49.281Z,99.90
2018-05-08T04:02:28.812Z,99.90
2018-05-08T04:05:08.317Z,99.90
2018-05-08T04:07:47.740Z,99.90
2018-05-08T04:10:15.319Z,99.90
2018-05-08T04:12:43.013Z,99.90
2018-05-08T04:15:10.639Z,99.90
2018-05-08T04:17:38.235Z,99.90
2018-05-08T04:20:05.813Z,99.90
2018-05-08T04:22:34.238Z,99.90
2018-05-08T04:25:01.829Z,99.90
2018-05-08T04:27:29.427Z,99.90
2018-05-08T04:29:57.021Z,99.90
2018-05-08T04:32:24.584Z,99.90
2018-05-08T04:34:52.171Z,99.90
2018-05-08T04:37:19.741Z,99.90
2018-05-08T04:39:47.337Z,99.90
2018-05-08T04:42:14.916Z,99.90
2018-05-08T04:44:42.471Z,99.90
2018-05-08T04:47:10.141Z,99.90
2018-05-08T04:49:37.807Z,99.90
2018-05-08T04:52:05.411Z,99.90
2018-05-08T04:54:33.769Z,99.90
2018-05-08T04:57:01.434Z,99.90
2018-05-08T04:59:29.054Z,99.90
2018-05-08T05:01:56.657Z,99.90
2018-05-08T05:04:24.238Z,99.90
2018-05-08T05:06:52.690Z,97.30
2018-05-08T05:09:20.984Z,95.90
2018-05-08T05:11:48.564Z,95.90
2018-05-08T05:14:17.000Z,93.50
2018-05-08T05:16:44.631Z,93.50
2018-05-08T05:19:12.991Z,91.20
2018-05-08T05:21:40.575Z,91.20
2018-05-08T05:24:08.202Z,90.40
2018-05-08T05:26:35.811Z,89.20
2018-05-08T05:29:03.404Z,87.30
2018-05-08T05:31:31.039Z,85.70
2018-05-08T05:33:58.591Z,85.50
2018-05-08T05:36:26.192Z,83.30
2018-05-08T05:38:53.864Z,81.80
2018-05-08T05:41:21.472Z,79.80
2018-05-08T05:43:49.260Z,78.40
2018-05-08T05:46:16.850Z,78.00
2018-05-08T05:48:44.457Z,78.50
2018-05-08T05:51:12.048Z,78.90
2018-05-08T05:53:39.601Z,80.10
2018-05-08T05:56:07.244Z,82.70
2018-05-08T05:58:34.822Z,83.80
2018-05-08T06:01:02.424Z,85.20
2018-05-08T06:03:30.849Z,87.20
2018-05-08T06:05:58.447Z,87.20
2018-05-08T06:08:26.094Z,87.40
2018-05-08T06:10:53.669Z,86.70
2018-05-08T06:13:21.285Z,85.30
2018-05-08T06:15:48.838Z,83.60
2018-05-08T06:18:16.463Z,82.40
2018-05-08T06:20:44.871Z,79.70
2018-05-08T06:23:12.431Z,79.70
2018-05-08T06:25:39.992Z,77.60
2018-05-08T06:28:07.567Z,76.10
2018-05-08T06:30:35.160Z,73.60
2018-05-08T06:33:02.773Z,72.70
2018-05-08T06:35:30.372Z,72.00
2018-05-08T06:37:58.041Z,71.90
2018-05-08T06:40:25.655Z,74.30
2018-05-08T06:42:53.218Z,76.00
2018-05-08T06:45:20.815Z,77.70
2018-05-08T06:47:48.585Z,79.50
2018-05-08T06:50:16.181Z,81.30
2018-05-08T06:52:43.787Z,82.80
2018-05-08T06:55:11.476Z,84.40
2018-05-08T06:57:39.099Z,85.00
2018-05-08T07:00:06.709Z,86.90
2018-05-08T07:02:35.115Z,88.60
2018-05-08T07:05:02.713Z,88.60
2018-05-08T07:07:30.338Z,90.00
2018-05-08T07:09:57.917Z,90.60
2018-05-08T07:12:25.525Z,91.20
2018-05-08T07:14:53.120Z,90.90
2018-05-08T07:17:20.693Z,91.00
2018-05-08T07:19:48.291Z,91.30
2018-05-08T07:22:15.865Z,91.40
2018-05-08T07:24:43.459Z,91.70
2018-05-08T07:27:11.023Z,91.60
2018-05-08T07:29:38.608Z,91.00
2018-05-08T07:32:06.223Z,91.00
2018-05-08T07:34:34.612Z,91.30
2018-05-08T07:37:02.217Z,91.30
2018-05-08T07:39:29.811Z,91.30
2018-05-08T07:41:57.385Z,91.00
2018-05-08T07:44:25.746Z,91.20
2018-05-08T07:46:53.405Z,91.20
2018-05-08T07:49:20.978Z,90.80
2018-05-08T07:51:49.378Z,90.70
2018-05-08T07:54:16.936Z,90.70
2018-05-08T07:56:44.541Z,91.10
2018-05-08T07:59:12.177Z,91.00
2018-05-08T08:01:39.885Z,91.00
2018-05-08T08:04:07.437Z,91.10
2018-05-08T08:06:35.048Z,90.60
2018-05-08T08:09:02.616Z,91.30
2018-05-08T08:11:30.176Z,90.90
2018-05-08T08:13:57.830Z,90.90
2018-05-08T08:16:25.393Z,91.20
2018-05-08T08:18:53.018Z,91.10
2018-05-08T08:21:20.725Z,90.80
2018-05-08T08:23:48.449Z,90.40
2018-05-08T08:26:16.023Z,90.80
2018-05-08T08:28:44.387Z,90.20
2018-05-08T08:31:11.943Z,90.10
2018-05-08T08:33:39.627Z,90.20
2018-05-08T08:36:07.976Z,90.10
2018-05-08T08:38:35.671Z,90.10
2018-05-08T08:41:03.996Z,89.50
2018-05-08T08:43:31.610Z,89.50
2018-05-08T08:45:59.998Z,87.80
2018-05-08T08:48:27.619Z,87.70
2018-05-08T08:50:55.201Z,87.10
2018-05-08T08:53:23.533Z,87.70
2018-05-08T08:55:51.096Z,86.90
2018-05-08T08:58:18.698Z,85.50
2018-05-08T09:00:47.055Z,84.10
2018-05-08T09:03:14.644Z,84.10
2018-05-08T09:05:43.017Z,84.10
2018-05-08T09:08:11.492Z,84.60
2018-05-08T09:10:39.098Z,84.60
2018-05-08T09:13:06.695Z,85.90
2018-05-08T09:15:34.268Z,84.80
2018-05-08T09:18:01.852Z,85.40
2018-05-08T09:20:29.562Z,84.30
2018-05-08T09:22:57.159Z,83.90
2018-05-08T09:25:24.781Z,83.40
2018-05-08T09:27:52.382Z,83.70
2018-05-08T09:30:20.758Z,82.00
2018-05-08T09:32:49.212Z,82.20
2018-05-08T09:35:16.754Z,82.10
2018-05-08T09:37:44.343Z,79.50
2018-05-08T09:40:11.959Z,82.10
2018-05-08T09:42:39.574Z,80.20
2018-05-08T09:45:07.226Z,77.70
2018-05-08T09:47:34.800Z,78.10
2018-05-08T09:50:02.398Z,77.50
2018-05-08T09:52:29.979Z,76.00
2018-05-08T09:54:57.629Z,76.10
2018-05-08T09:57:25.206Z,74.30
2018-05-08T09:59:52.791Z,75.00
2018-05-08T10:02:20.392Z,73.60
2018-05-08T10:04:47.984Z,73.60
2018-05-08T10:07:15.568Z,72.90
2018-05-08T10:09:43.147Z,71.60
2018-05-08T10:12:11.626Z,70.50
2018-05-08T10:14:39.958Z,69.80
2018-05-08T10:17:07.551Z,69.80
2018-05-08T10:19:35.124Z,70.90
2018-05-08T10:22:03.461Z,70.30
2018-05-08T10:24:31.204Z,70.00
2018-05-08T10:26:58.877Z,67.30
2018-05-08T10:29:26.514Z,67.70
2018-05-08T10:31:54.144Z,67.20
2018-05-08T10:34:21.840Z,66.30
2018-05-08T10:36:49.400Z,66.90
2018-05-08T10:39:17.090Z,67.50
2018-05-08T10:41:44.664Z,68.50
2018-05-08T10:44:12.274Z,67.10
2018-05-08T10:46:40.635Z,66.90
2018-05-08T10:49:08.296Z,66.80
2018-05-08T10:51:36.672Z,66.40
2018-05-08T10:54:05.062Z,68.20
2018-05-08T10:56:33.417Z,67.10
2018-05-08T10:59:01.001Z,67.10
2018-05-08T11:01:29.416Z,65.10
2018-05-08T11:03:57.095Z,65.10
2018-05-08T11:06:24.831Z,62.40
2018-05-08T11:08:52.368Z,66.00
2018-05-08T11:11:20.764Z,64.80
2018-05-08T11:13:48.334Z,64.80
2018-05-08T11:16:15.951Z,63.50
2018-05-08T11:18:43.544Z,62.50
2018-05-08T11:21:11.181Z,63.50
2018-05-08T11:23:38.744Z,63.40
2018-05-08T11:26:07.118Z,63.20
2018-05-08T11:28:34.702Z,63.20
2018-05-08T11:31:03.036Z,61.00
2018-05-08T11:33:30.638Z,61.10
2018-05-08T11:35:58.955Z,59.50
2018-05-08T11:38:26.538Z,59.50
2018-05-08T11:40:54.115Z,59.50
2018-05-08T11:43:21.743Z,59.80
2018-05-08T11:45:49.325Z,58.80
2018-05-08T11:48:16.911Z,59.30
2018-05-08T11:50:45.260Z,59.90
2018-05-08T11:53:12.859Z,59.80
2018-05-08T11:55:40.443Z,57.00
2018-05-08T11:58:08.108Z,58.30
2018-05-08T12:00:35.725Z,58.80
2018-05-08T12:03:04.068Z,58.90
2018-05-08T12:05:31.653Z,58.90
2018-05-08T12:07:59.254Z,58.90
2018-05-08T12:13:00.817Z,59.50
2018-05-08T12:15:28.426Z,59.00
2018-05-08T12:17:56.000Z,59.00
2018-05-08T12:20:24.388Z,56.80
2018-05-08T12:22:51.967Z,56.90
2018-05-08T12:25:20.313Z,56.30
2018-05-08T12:27:47.902Z,56.30
2018-05-08T12:30:16.237Z,57.80
2018-05-08T12:32:43.846Z,57.80
2018-05-08T12:35:11.407Z,57.40
2018-05-08T12:37:39.792Z,56.00
2018-05-08T12:40:07.388Z,56.00
2018-05-08T12:42:34.990Z,56.30
2018-05-08T12:45:02.563Z,56.30
2018-05-08T12:47:30.169Z,56.60
2018-05-08T12:49:57.823Z,55.90
2018-05-08T12:52:25.427Z,56.30
2018-05-08T12:54:53.050Z,55.30
2018-05-08T12:57:20.614Z,55.20
2018-05-08T12:59:48.233Z,54.70
2018-05-08T13:02:15.811Z,55.00
2018-05-08T13:04:43.607Z,56.30
2018-05-08T13:07:11.154Z,56.50
2018-05-08T13:09:38.795Z,56.90
2018-05-08T13:12:06.366Z,57.50
2018-05-08T13:14:33.960Z,57.90
2018-05-08T13:17:01.559Z,57.00
2018-05-08T13:19:29.773Z,57.50
2018-05-08T13:21:57.398Z,57.20
2018-05-08T13:24:25.061Z,57.00
2018-05-08T13:26:53.437Z,57.20
2018-05-08T13:29:21.036Z,57.20
2018-05-08T13:31:48.636Z,57.70
2018-05-08T13:34:16.214Z,58.00
2018-05-08T13:36:44.564Z,57.40
2018-05-08T13:39:12.149Z,57.40
2018-05-08T13:41:40.595Z,57.30
2018-05-08T13:44:08.193Z,57.30
2018-05-08T13:46:36.548Z,58.20
2018-05-08T13:49:04.168Z,58.10
2018-05-08T13:51:31.778Z,57.00
2018-05-08T13:53:59.450Z,57.50
2018-05-08T13:56:27.065Z,58.30
2018-05-08T13:58:54.628Z,58.10
2018-05-08T14:01:22.317Z,57.60
2018-05-08T14:03:50.599Z,58.80
2018-05-08T14:06:18.519Z,59.00
2018-05-08T14:08:46.096Z,58.90
2018-05-08T14:11:13.718Z,59.30
2018-05-08T14:13:41.293Z,58.80
2018-05-08T14:16:08.836Z,58.20
2018-05-08T14:18:37.191Z,58.30
2018-05-08T14:21:04.766Z,58.20
2018-05-08T14:23:32.503Z,58.80
2018-05-08T14:26:00.089Z,57.50
2018-05-08T14:28:28.446Z,56.70
2018-05-08T14:30:56.016Z,56.70
2018-05-08T14:33:23.604Z,57.20
2018-05-08T14:35:52.494Z,58.00
2018-05-08T14:38:20.093Z,58.30
2018-05-08T14:40:47.699Z,57.90
2018-05-08T14:43:16.128Z,57.50
2018-05-08T14:45:44.841Z,57.50
2018-05-08T14:48:12.682Z,58.20
2018-05-08T14:50:40.307Z,57.60
2018-05-08T14:53:07.882Z,57.80
2018-05-08T14:55:35.518Z,57.60
2018-05-08T14:58:04.042Z,58.20
2018-05-08T15:00:31.712Z,57.50
2018-05-08T15:02:59.364Z,57.00
2018-05-08T15:05:27.072Z,56.90
2018-05-08T15:07:56.256Z,56.90
2018-05-08T15:10:23.921Z,56.90
2018-05-08T15:12:51.603Z,57.50
2018-05-08T15:15:19.247Z,57.20
2018-05-08T15:17:47.622Z,56.40
2018-05-08T15:20:15.319Z,56.40
2018-05-08T15:22:42.951Z,56.10
2018-05-08T15:25:10.642Z,56.50
2018-05-08T15:27:38.300Z,56.80
2018-05-08T15:30:06.764Z,56.30
2018-05-08T15:32:34.442Z,56.40
2018-05-08T15:35:02.798Z,56.90
2018-05-08T15:37:30.429Z,56.90
2018-05-08T15:39:58.224Z,56.20
2018-05-08T15:42:25.865Z,56.10
2018-05-08T15:44:54.304Z,56.30
2018-05-08T15:47:21.979Z,56.40
2018-05-08T15:49:49.643Z,56.80
2018-05-08T15:52:17.236Z,55.30
2018-05-08T15:54:44.884Z,55.10
2018-05-08T15:57:12.817Z,55.40
2018-05-08T15:59:41.229Z,55.40
2018-05-08T16:02:09.072Z,55.40
2018-05-08T16:04:36.821Z,55.10
2018-05-08T16:07:04.539Z,55.90
2018-05-08T16:09:34.013Z,55.50
2018-05-08T16:12:02.568Z,55.50
2018-05-08T16:14:30.188Z,55.50
2018-05-08T16:16:57.786Z,55.20
2018-05-08T16:19:26.144Z,55.30
2018-05-08T16:21:53.771Z,54.80
2018-05-08T16:24:21.361Z,54.90
2018-05-08T16:26:48.969Z,54.30
2018-05-08T16:29:16.618Z,53.70
2018-05-08T16:31:44.997Z,53.80
2018-05-08T16:34:12.663Z,53.80
2018-05-08T16:36:40.300Z,54.50
2018-05-08T16:39:09.607Z,54.70
2018-05-08T16:41:38.035Z,54.90
2018-05-08T16:44:05.863Z,54.80
2018-05-08T16:46:34.648Z,54.60
2018-05-08T16:49:04.827Z,55.70
2018-05-08T16:51:32.661Z,55.10
2018-05-08T16:54:01.117Z,54.80
2018-05-08T16:56:28.664Z,55.30
2018-05-08T16:58:56.270Z,55.10
2018-05-08T17:01:24.053Z,55.20
2018-05-08T17:03:51.779Z,55.70
2018-05-08T17:06:20.198Z,55.70
2018-05-08T17:08:47.956Z,55.70
2018-05-08T17:11:15.816Z,55.80
2018-05-08T17:13:43.489Z,55.80
2018-05-08T17:16:11.116Z,54.80
2018-05-08T17:18:39.557Z,51.60
2018-05-08T17:21:07.968Z,51.60
2018-05-08T17:23:35.776Z,49.90
2018-05-08T17:26:03.396Z,48.60
2018-05-08T17:28:31.838Z,47.40
2018-05-08T17:30:59.556Z,47.30
2018-05-08T17:33:27.267Z,46.40
2018-05-08T17:35:54.850Z,45.90
2018-05-08T17:38:22.513Z,45.10
2018-05-08T17:40:50.228Z,44.40
2018-05-08T17:43:18.866Z,43.50
2018-05-08T17:45:46.469Z,43.70
2018-05-08T17:48:14.046Z,44.50
2018-05-08T17:50:41.813Z,44.90
2018-05-08T17:53:09.791Z,45.40
2018-05-08T17:55:37.542Z,46.70
2018-05-08T17:58:05.208Z,47.80
2018-05-08T18:00:32.818Z,48.50
2018-05-08T18:03:00.487Z,49.20
2018-05-08T18:05:28.850Z,51.00
2018-05-08T18:07:57.266Z,51.60
2018-05-08T18:10:24.937Z,51.60
2018-05-08T18:12:52.524Z,51.40
2018-05-08T18:15:20.218Z,51.60
2018-05-08T18:17:47.825Z,52.30
2018-05-08T18:20:15.490Z,52.90
2018-05-08T18:22:43.260Z,53.50
2018-05-08T18:25:10.891Z,54.00
2018-05-08T18:27:38.501Z,54.80
2018-05-08T18:30:06.109Z,55.40
2018-05-08T18:32:33.731Z,55.90
2018-05-08T18:35:02.133Z,57.80
2018-05-08T18:37:31.515Z,57.50
2018-05-08T18:39:59.917Z,58.90
2018-05-08T18:42:28.371Z,58.40
2018-05-08T18:44:56.108Z,58.40
2018-05-08T18:47:23.744Z,58.60
2018-05-08T18:49:51.374Z,59.10
2018-05-08T18:52:19.116Z,59.50
2018-05-08T18:54:46.749Z,59.80
2018-05-08T18:57:15.052Z,60.20
2018-05-08T18:59:43.450Z,60.70
2018-05-08T19:02:11.133Z,60.70
2018-05-08T19:04:39.571Z,61.10
2018-05-08T19:07:07.357Z,61.10
2018-05-08T19:09:35.039Z,61.80
2018-05-08T19:12:03.464Z,62.50
2018-05-08T19:14:31.128Z,62.50
2018-05-08T19:16:58.889Z,62.90
2018-05-08T19:19:32.140Z,63.20
2018-05-08T19:22:00.628Z,63.90
2018-05-08T19:24:34.106Z,63.80
2018-05-08T19:27:01.729Z,64.10
2018-05-08T19:29:35.142Z,64.40
2018-05-08T19:32:02.868Z,64.50
2018-05-08T19:34:36.303Z,64.90
2018-05-08T19:37:09.749Z,65.00
2018-05-08T19:39:37.432Z,65.00
2018-05-08T19:42:05.846Z,65.60
2018-05-08T19:44:34.569Z,65.60
2018-05-08T19:47:02.322Z,66.40
2018-05-08T19:49:29.947Z,65.50
2018-05-08T19:51:57.612Z,65.70
2018-05-08T19:54:25.367Z,66.70
2018-05-08T19:56:53.032Z,65.90
2018-05-08T19:59:20.876Z,66.10
2018-05-08T20:01:48.592Z,66.20
2018-05-08T20:04:16.971Z,66.20
2018-05-08T20:06:44.738Z,66.20
2018-05-08T20:09:12.424Z,66.30
2018-05-08T20:11:40.800Z,66.70
2018-05-08T20:14:08.438Z,66.60
2018-05-08T20:16:36.879Z,66.90
2018-05-08T20:19:04.598Z,67.70
2018-05-08T20:21:33.172Z,67.20
2018-05-08T20:24:00.895Z,67.60
2018-05-08T20:26:28.550Z,67.60
2018-05-08T20:28:56.143Z,67.80
2018-05-08T20:31:24.484Z,68.00
2018-05-08T20:33:52.087Z,68.10
2018-05-08T20:36:19.812Z,68.30
2018-05-08T20:38:48.214Z,68.80
2018-05-08T20:41:15.835Z,68.80
2018-05-08T20:43:43.439Z,69.10
2018-05-08T20:46:11.984Z,69.10
2018-05-08T20:48:40.189Z,69.30
2018-05-08T20:51:07.831Z,69.40
2018-05-08T20:53:35.523Z,69.40
2018-05-08T20:56:03.179Z,69.80
2018-05-08T20:58:30.809Z,70.00
2018-05-08T21:01:00.103Z,70.20
2018-05-08T21:03:28.027Z,70.30
2018-05-08T21:05:56.483Z,70.50
2018-05-08T21:08:24.139Z,70.90
2018-05-08T21:10:51.770Z,70.90
2018-05-08T21:13:19.481Z,71.00
2018-05-08T21:15:47.310Z,71.20
2018-05-08T21:18:14.911Z,71.30
2018-05-08T21:20:42.531Z,71.50
2018-05-08T21:23:10.173Z,71.90
2018-05-08T21:25:38.555Z,72.20
2018-05-08T21:28:11.802Z,72.10
2018-05-08T21:30:45.064Z,72.40
2018-05-08T21:33:12.665Z,72.30
2018-05-08T21:35:40.323Z,72.80
2018-05-08T21:38:08.077Z,73.00
2018-05-08T21:40:36.581Z,73.50
2018-05-08T21:43:04.258Z,73.70
2018-05-08T21:45:32.667Z,74.70
2018-05-08T21:48:00.372Z,74.60
2018-05-08T21:50:28.766Z,74.90
2018-05-08T21:52:56.401Z,75.20
2018-05-08T21:55:24.091Z,75.20
2018-05-08T21:57:51.708Z,75.10
2018-05-08T22:00:19.433Z,75.40
2018-05-08T22:02:47.593Z,75.70
2018-05-08T22:05:15.951Z,77.30
2018-05-08T22:07:43.567Z,76.30
2018-05-08T22:10:12.001Z,77.50
2018-05-08T22:12:39.647Z,76.60
2018-05-08T22:15:07.829Z,76.70
2018-05-08T22:17:35.576Z,77.10
2018-05-08T22:20:03.252Z,77.30
2018-05-08T22:22:30.928Z,77.90
2018-05-08T22:24:58.560Z,78.20
2018-05-08T22:27:26.766Z,79.40
2018-05-08T22:29:54.448Z,78.80
2018-05-08T22:32:22.878Z,79.20
2018-05-08T22:34:50.612Z,79.20
2018-05-08T22:37:18.198Z,79.50
2018-05-08T22:39:45.845Z,79.70
2018-05-08T22:42:13.470Z,79.90
2018-05-08T22:44:41.812Z,80.40
2018-05-08T22:47:09.791Z,80.40
2018-05-08T22:49:38.402Z,80.60
2018-05-08T22:52:06.752Z,81.40
2018-05-08T22:54:34.422Z,81.40
2018-05-08T22:57:02.053Z,81.90
2018-05-08T22:59:29.784Z,82.30
2018-05-08T23:01:57.402Z,82.30
2018-05-08T23:04:24.995Z,82.80
2018-05-08T23:06:52.619Z,83.10
2018-05-08T23:09:20.326Z,83.40
2018-05-08T23:11:47.972Z,83.90
2018-05-08T23:14:16.031Z,84.20
2018-05-08T23:16:43.643Z,84.30
2018-05-08T23:19:11.255Z,85.60
2018-05-08T23:21:39.064Z,85.50
2018-05-08T23:24:06.639Z,86.60
2018-05-08T23:26:34.649Z,86.00
2018-05-08T23:29:02.277Z,86.00
2018-05-08T23:31:29.933Z,86.70
2018-05-08T23:33:57.676Z,87.00
2018-05-08T23:36:25.315Z,87.10
2018-05-08T23:38:54.356Z,88.30
2018-05-08T23:41:21.962Z,88.30
2018-05-08T23:43:50.289Z,89.10
2018-05-08T23:46:17.895Z,89.00
2018-05-08T23:48:45.542Z,89.60
2018-05-08T23:51:13.919Z,90.30
2018-05-08T23:53:41.547Z,90.10
2018-05-08T23:56:09.193Z,90.20
2018-05-08T23:58:36.810Z,90.30
